createdAt,value
2022-11-24T00:01:06.570Z,94821.88
2022-11-24T00:03:33.519Z,94824.63
2022-11-24T00:06:11.897Z,94824.63
2022-11-24T00:08:39.998Z,94825.72
2022-11-24T00:11:12.946Z,94821.09
2022-11-24T00:13:39.671Z,94833.59
2022-11-24T00:16:24.515Z,94834.38
2022-11-24T00:18:53.117Z,94839.03
2022-11-24T00:21:20.755Z,94838.72
2022-11-24T00:23:48.838Z,94846.09
2022-11-24T00:26:16.533Z,94837.13
2022-11-24T00:28:43.965Z,94842.25
2022-11-24T00:31:22.430Z,94836.47
2022-11-24T00:33:50.882Z,94846.25
2022-11-24T00:36:19.152Z,94843.53
2022-11-24T00:38:46.577Z,94846.41
2022-11-24T00:41:13.688Z,94836.16
2022-11-24T00:43:40.352Z,94836.16
2022-11-24T00:46:07.077Z,94836.31
2022-11-24T00:48:33.760Z,94838.56
2022-11-24T00:51:06.012Z,94843.22
2022-11-24T00:53:32.753Z,94841.28
2022-11-24T00:55:59.542Z,94849.13
2022-11-24T00:58:26.359Z,94851.88
2022-11-24T01:00:53.517Z,94854.28
2022-11-24T01:03:21.188Z,94865.66
2022-11-24T01:05:47.761Z,94866.78
2022-11-24T01:08:14.504Z,94857.47
2022-11-24T01:10:41.094Z,94854.13
2022-11-24T01:13:07.682Z,94857.47
2022-11-24T01:15:36.417Z,94861.00
2022-11-24T01:18:04.115Z,94864.22
2022-11-24T01:20:31.408Z,94860.69
2022-11-24T01:22:58.085Z,94874.31
2022-11-24T01:25:24.678Z,94879.28
2022-11-24T01:27:51.421Z,94882.31
2022-11-24T01:30:18.121Z,94878.31
2022-11-24T01:32:44.724Z,94882.00
2022-11-24T01:35:11.254Z,94884.72
2022-11-24T01:37:37.810Z,94872.22
2022-11-24T01:40:05.833Z,94881.50
2022-11-24T01:42:50.682Z,94879.41
2022-11-24T01:45:40.748Z,94883.44
2022-11-24T01:48:14.613Z,94882.13
2022-11-24T01:50:41.779Z,94886.97
2022-11-24T01:53:08.993Z,94889.19
2022-11-24T01:55:39.284Z,94881.34
2022-11-24T01:58:15.339Z,94873.34
2022-11-24T02:00:45.277Z,94872.22
2022-11-24T02:03:18.165Z,94876.56
2022-11-24T02:06:08.869Z,94873.66
2022-11-24T02:08:40.744Z,94866.28
2022-11-24T02:11:07.381Z,94869.19
2022-11-24T02:13:37.236Z,94865.16
2022-11-24T02:16:06.671Z,94873.03
2022-11-24T02:18:33.497Z,94866.78
2022-11-24T02:21:00.702Z,94865.81
2022-11-24T02:24:01.017Z,94868.38
2022-11-24T02:26:30.198Z,94871.91
2022-11-24T02:28:57.048Z,94883.13
2022-11-24T02:31:23.674Z,94877.03
2022-11-24T02:33:50.981Z,94881.19
2022-11-24T02:36:17.593Z,94879.44
2022-11-24T02:38:44.197Z,94885.53
2022-11-24T02:41:15.067Z,94886.50
2022-11-24T02:43:47.041Z,94881.84
2022-11-24T02:46:13.670Z,94893.38
2022-11-24T02:48:40.401Z,94885.69
2022-11-24T02:51:06.974Z,94884.09
2022-11-24T02:53:33.711Z,94880.72
2022-11-24T02:56:00.276Z,94881.03
2022-11-24T02:58:26.812Z,94875.59
2022-11-24T03:00:54.490Z,94884.88
2022-11-24T03:03:21.710Z,94886.19
2022-11-24T03:05:48.278Z,94890.34
2022-11-24T03:08:14.813Z,94892.75
2022-11-24T03:10:41.388Z,94892.91
2022-11-24T03:13:08.258Z,94891.63
2022-11-24T03:15:35.886Z,94903.00
2022-11-24T03:18:03.245Z,94896.91
2022-11-24T03:20:30.074Z,94898.34
2022-11-24T03:22:56.908Z,94897.56
2022-11-24T03:25:23.709Z,94893.06
2022-11-24T03:27:50.330Z,94899.16
2022-11-24T03:30:16.930Z,94893.72
2022-11-24T03:32:43.593Z,94889.88
2022-11-24T03:35:10.149Z,94899.97
2022-11-24T03:37:37.292Z,94895.31
2022-11-24T03:40:04.339Z,94886.50
2022-11-24T03:42:30.938Z,94890.84
2022-11-24T03:44:57.476Z,94892.28
2022-11-24T03:47:24.062Z,94908.63
2022-11-24T03:49:50.576Z,94912.47
2022-11-24T03:52:17.092Z,94907.34
2022-11-24T03:54:43.855Z,94922.72
2022-11-24T03:57:10.463Z,94915.34
2022-11-24T03:59:36.994Z,94927.38
2022-11-24T04:02:03.682Z,94922.41
2022-11-24T04:04:30.423Z,94925.44
2022-11-24T04:06:57.015Z,94927.38
2022-11-24T04:09:23.588Z,94928.97
2022-11-24T04:12:08.352Z,94931.22
2022-11-24T04:14:35.209Z,94939.38
2022-11-24T04:17:04.257Z,94945.66
2022-11-24T04:19:31.027Z,94939.72
2022-11-24T04:21:57.567Z,94953.31
2022-11-24T04:24:24.142Z,94953.66
2022-11-24T04:26:50.665Z,94952.03
2022-11-24T04:29:17.217Z,94939.84
2022-11-24T04:31:43.818Z,94951.06
2022-11-24T04:34:11.299Z,94950.25
2022-11-24T04:36:37.921Z,94943.53
2022-11-24T04:39:24.477Z,94951.22
2022-11-24T04:41:50.996Z,94949.13
2022-11-24T04:44:17.587Z,94948.63
2022-11-24T04:46:44.360Z,94944.78
2022-11-24T04:49:11.812Z,94954.06
2022-11-24T04:51:39.804Z,94953.59
2022-11-24T04:54:13.624Z,94946.22
2022-11-24T04:56:41.793Z,94952.97
2022-11-24T04:59:12.256Z,94961.63
2022-11-24T05:01:38.883Z,94965.13
2022-11-24T05:04:05.437Z,94967.06
2022-11-24T05:06:33.238Z,94960.63
2022-11-24T05:08:59.786Z,94966.25
2022-11-24T05:11:26.306Z,94962.25
2022-11-24T05:13:53.266Z,94962.88
2022-11-24T05:16:20.139Z,94970.06
2022-11-24T05:18:46.769Z,94981.28
2022-11-24T05:21:13.624Z,94985.59
2022-11-24T05:23:40.261Z,94992.78
2022-11-24T05:26:06.905Z,94979.66
2022-11-24T05:28:33.776Z,94997.13
2022-11-24T05:31:01.908Z,95006.72
2022-11-24T05:33:30.143Z,94992.31
2022-11-24T05:36:02.186Z,95010.25
2022-11-24T05:38:30.187Z,94997.25
2022-11-24T05:41:04.474Z,94991.00
2022-11-24T05:43:31.562Z,95019.03
2022-11-24T05:46:01.901Z,95005.75
2022-11-24T05:48:28.531Z,94991.31
2022-11-24T05:50:56.776Z,95011.19
2022-11-24T05:53:24.246Z,95007.47
2022-11-24T05:55:51.950Z,95019.47
2022-11-24T05:58:21.705Z,95009.72
2022-11-24T06:00:48.600Z,95017.88
2022-11-24T06:03:15.423Z,95029.84
2022-11-24T06:05:46.896Z,95041.84
2022-11-24T06:08:14.238Z,95033.81
2022-11-24T06:10:40.822Z,95032.22
2022-11-24T06:13:07.916Z,95032.22
2022-11-24T06:15:35.189Z,95041.19
2022-11-24T06:18:01.809Z,95030.28
2022-11-24T06:20:32.426Z,95041.97
2022-11-24T06:23:00.215Z,95038.94
2022-11-24T06:25:27.758Z,95053.84
2022-11-24T06:27:54.356Z,95046.50
2022-11-24T06:30:20.865Z,95056.59
2022-11-24T06:32:49.914Z,95063.75
2022-11-24T06:35:17.325Z,95064.88
2022-11-24T06:37:43.921Z,95067.91
2022-11-24T06:40:10.845Z,95067.09
2022-11-24T06:42:37.698Z,95044.34
2022-11-24T06:45:09.082Z,95068.97
2022-11-24T06:47:36.706Z,95077.44
2022-11-24T06:50:03.803Z,95081.09
2022-11-24T06:52:30.651Z,95071.81
2022-11-24T06:54:57.312Z,95090.25
2022-11-24T06:57:24.019Z,95105.47
2022-11-24T06:59:50.658Z,95115.91
2022-11-24T07:02:17.202Z,95111.91
2022-11-24T07:04:43.771Z,95121.16
2022-11-24T07:07:10.397Z,95121.16
2022-11-24T07:09:37.047Z,95114.31
2022-11-24T07:12:04.815Z,95120.88
2022-11-24T07:14:32.170Z,95124.88
2022-11-24T07:16:58.907Z,95143.94
2022-11-24T07:19:25.513Z,95137.69
2022-11-24T07:21:52.138Z,95149.06
2022-11-24T07:24:18.899Z,95158.16
2022-11-24T07:26:45.602Z,95156.56
2022-11-24T07:29:12.183Z,95163.13
2022-11-24T07:31:39.228Z,95167.94
2022-11-24T07:34:06.233Z,95169.56
2022-11-24T07:36:32.817Z,95183.28
2022-11-24T07:38:59.646Z,95186.50
2022-11-24T07:41:26.155Z,95185.00
2022-11-24T07:43:55.605Z,95181.41
2022-11-24T07:46:22.238Z,95182.19
2022-11-24T07:48:48.847Z,95185.63
2022-11-24T07:51:16.092Z,95199.00
2022-11-24T07:53:42.840Z,95200.50
2022-11-24T07:56:09.539Z,95220.34
2022-11-24T07:58:37.466Z,95209.47
2022-11-24T08:01:11.520Z,95220.66
2022-11-24T08:03:38.314Z,95223.38
2022-11-24T08:06:23.606Z,95235.88
2022-11-24T08:08:51.008Z,95242.94
2022-11-24T08:11:18.307Z,95232.66
2022-11-24T08:13:45.250Z,95245.16
2022-11-24T08:16:16.861Z,95252.22
2022-11-24T08:18:44.734Z,95243.44
2022-11-24T08:21:14.908Z,95256.56
2022-11-24T08:23:42.085Z,95247.78
2022-11-24T08:26:13.670Z,95209.66
2022-11-24T08:28:40.235Z,95251.19
2022-11-24T08:31:16.080Z,95255.44
2022-11-24T08:33:42.713Z,95258.34
2022-11-24T08:36:17.825Z,95240.91
2022-11-24T08:38:45.409Z,95247.97
2022-11-24T08:41:14.648Z,95274.38
2022-11-24T08:43:42.261Z,95273.78
2022-11-24T08:46:12.565Z,95278.41
2022-11-24T08:48:39.212Z,95269.31
2022-11-24T08:51:18.424Z,95256.53
2022-11-24T08:53:45.068Z,95270.31
2022-11-24T08:56:12.993Z,95280.41
2022-11-24T08:58:40.189Z,95284.13
2022-11-24T09:01:09.730Z,95284.25
2022-11-24T09:03:37.725Z,95289.41
2022-11-24T09:06:05.483Z,95300.47
2022-11-24T09:08:33.330Z,95302.72
2022-11-24T09:11:05.540Z,95299.78
2022-11-24T09:13:32.573Z,95310.66
2022-11-24T09:16:04.512Z,95298.63
2022-11-24T09:18:31.199Z,95316.28
2022-11-24T09:21:14.549Z,95318.22
2022-11-24T09:23:42.520Z,95301.25
2022-11-24T09:26:11.850Z,95309.19
2022-11-24T09:28:38.983Z,95318.16
2022-11-24T09:31:08.137Z,95320.97
2022-11-24T09:33:35.994Z,95318.06
2022-11-24T09:36:02.809Z,95334.81
2022-11-24T09:38:29.867Z,95323.44
2022-11-24T09:41:06.035Z,95320.72
2022-11-24T09:43:45.904Z,95329.09
2022-11-24T09:46:23.371Z,95324.97
2022-11-24T09:48:54.977Z,95326.47
2022-11-24T09:51:25.966Z,95338.44
2022-11-24T09:53:59.930Z,95330.94
2022-11-24T09:56:30.894Z,95329.50
2022-11-24T09:59:02.877Z,95331.53
2022-11-24T10:01:32.496Z,95340.09
2022-11-24T10:04:05.598Z,95336.28
2022-11-24T10:06:34.834Z,95348.50
2022-11-24T10:09:19.792Z,95360.00
2022-11-24T10:12:17.138Z,95359.94
2022-11-24T10:15:15.706Z,95357.44
2022-11-24T10:18:16.969Z,95360.00
2022-11-24T10:21:22.403Z,95384.72
2022-11-24T10:24:16.469Z,95379.19
2022-11-24T10:27:00.554Z,95388.06
2022-11-24T10:29:40.961Z,95393.22
2022-11-24T10:32:24.350Z,95389.28
2022-11-24T10:34:51.566Z,95388.88
2022-11-24T10:37:26.125Z,95404.03
2022-11-24T10:40:04.040Z,95402.19
2022-11-24T10:42:37.041Z,95414.03
2022-11-24T10:45:14.462Z,95400.19
2022-11-24T10:47:42.762Z,95402.00
2022-11-24T10:50:23.540Z,95403.00
2022-11-24T10:53:09.031Z,95402.88
2022-11-24T10:55:54.081Z,95391.72
2022-11-24T10:58:24.073Z,95383.59
2022-11-24T11:00:50.781Z,95412.09
2022-11-24T11:03:31.786Z,95408.75
2022-11-24T11:06:10.302Z,95415.91
2022-11-24T11:08:36.961Z,95407.53
2022-11-24T11:11:29.191Z,95410.81
2022-11-24T11:14:05.010Z,95412.09
2022-11-24T11:16:39.361Z,95410.06
2022-11-24T11:19:58.472Z,95417.63
2022-11-24T11:22:37.262Z,95424.78
2022-11-24T11:25:16.573Z,95423.03
2022-11-24T11:27:43.262Z,95440.78
2022-11-24T11:35:49.347Z,95423.19
2022-11-24T11:38:16.000Z,95435.97
2022-11-24T11:40:43.873Z,95438.06
2022-11-24T11:43:24.898Z,95431.91
2022-11-24T11:46:10.085Z,95438.31
2022-11-24T11:48:43.714Z,95442.19
2022-11-24T11:51:25.877Z,95453.00
2022-11-24T11:54:20.175Z,95439.47
2022-11-24T11:56:51.028Z,95446.06
2022-11-24T11:59:36.598Z,95442.59
2022-11-24T12:02:37.192Z,95446.50
2022-11-24T12:05:27.430Z,95443.56
2022-11-24T12:08:21.041Z,95438.56
2022-11-24T12:10:48.075Z,95449.66
2022-11-24T12:13:14.644Z,95443.22
2022-11-24T12:15:44.603Z,95445.81
2022-11-24T12:18:55.209Z,95438.47
2022-11-24T12:21:26.216Z,95446.81
2022-11-24T12:24:10.938Z,95439.97
2022-11-24T12:26:53.597Z,95445.19
2022-11-24T12:29:32.624Z,95441.16
2022-11-24T12:32:19.952Z,95435.88
2022-11-24T12:34:56.135Z,95434.28
2022-11-24T12:37:47.319Z,95429.25
2022-11-24T12:40:46.578Z,95426.66
2022-11-24T12:43:35.557Z,95422.09
2022-11-24T12:46:14.009Z,95430.19
2022-11-24T12:49:15.346Z,95422.84
2022-11-24T12:51:46.122Z,95426.06
2022-11-24T12:54:15.673Z,95425.66
2022-11-24T12:57:06.574Z,95423.44
2022-11-24T13:00:01.865Z,95422.28
2022-11-24T13:02:49.898Z,95415.09
2022-11-24T13:05:46.498Z,95417.34
2022-11-24T13:08:14.361Z,95418.19
2022-11-24T13:10:57.871Z,95414.31
2022-11-24T13:13:29.861Z,95418.06
2022-11-24T13:16:20.617Z,95414.13
2022-11-24T13:18:52.738Z,95420.22
2022-11-24T13:21:31.153Z,95415.47
2022-11-24T13:24:04.325Z,95413.66
2022-11-24T13:26:53.072Z,95408.06
2022-11-24T13:29:28.794Z,95401.47
2022-11-24T13:31:55.979Z,95400.19
2022-11-24T13:34:45.984Z,95413.31
2022-11-24T13:37:33.747Z,95406.78
2022-11-24T13:40:13.371Z,95406.44
2022-11-24T13:42:55.165Z,95406.84
2022-11-24T13:45:41.092Z,95412.06
2022-11-24T13:48:20.381Z,95408.94
2022-11-24T13:50:50.424Z,95417.13
2022-11-24T13:53:29.409Z,95416.31
2022-11-24T13:56:15.080Z,95421.88
2022-11-24T13:58:57.454Z,95421.13
2022-11-24T14:01:32.712Z,95421.59
2022-11-24T14:04:29.797Z,95418.69
2022-11-24T14:06:55.040Z,95428.81
2022-11-24T14:09:44.788Z,95418.50
2022-11-24T14:12:20.356Z,95419.63
2022-11-24T14:14:49.272Z,95421.75
2022-11-24T14:17:24.399Z,95418.66
2022-11-24T14:19:53.649Z,95410.75
2022-11-24T14:22:42.262Z,95411.06
2022-11-24T14:25:25.355Z,95413.38
2022-11-24T14:27:52.038Z,95407.44
2022-11-24T14:30:21.694Z,95401.34
2022-11-24T14:32:58.992Z,95402.78
2022-11-24T14:35:25.580Z,95406.69
2022-11-24T14:37:52.336Z,95404.56
2022-11-24T14:40:41.651Z,95404.25
2022-11-24T14:43:32.329Z,95397.38
2022-11-24T14:46:06.016Z,95398.50
2022-11-24T14:48:46.916Z,95406.19
2022-11-24T14:51:22.940Z,95412.25
2022-11-24T14:53:53.518Z,95415.72
2022-11-24T14:56:29.266Z,95414.81
2022-11-24T14:58:57.482Z,95410.78
2022-11-24T15:01:27.491Z,95417.84
2022-11-24T15:04:26.528Z,95415.63
2022-11-24T15:07:14.048Z,95417.44
2022-11-24T15:09:53.312Z,95423.88
2022-11-24T15:12:39.655Z,95423.59
2022-11-24T15:15:34.118Z,95431.66
2022-11-24T15:18:02.635Z,95437.09
2022-11-24T15:20:35.349Z,95427.00
2022-11-24T15:23:25.045Z,95431.75
2022-11-24T15:25:53.495Z,95427.13
2022-11-24T15:28:25.517Z,95435.59
2022-11-24T15:30:59.507Z,95434.78
2022-11-24T15:33:26.793Z,95423.81
2022-11-24T15:35:53.844Z,95424.63
2022-11-24T15:38:21.252Z,95427.34
2022-11-24T15:40:50.316Z,95428.97
2022-11-24T15:43:32.158Z,95437.13
2022-11-24T15:45:59.697Z,95432.09
2022-11-24T15:48:26.964Z,95422.41
2022-11-24T15:50:55.297Z,95425.66
2022-11-24T15:53:27.511Z,95430.63
2022-11-24T15:55:56.387Z,95421.34
2022-11-24T15:58:23.685Z,95428.00
2022-11-24T16:00:53.402Z,95434.66
2022-11-24T16:06:16.732Z,95431.13
2022-11-24T16:08:46.228Z,95434.34
2022-11-24T16:11:12.827Z,95424.97
2022-11-24T16:13:39.954Z,95431.63
2022-11-24T16:16:06.858Z,95449.19
2022-11-24T16:18:35.386Z,95448.28
2022-11-24T16:21:02.011Z,95449.50
2022-11-24T16:23:28.589Z,95447.47
2022-11-24T16:25:55.273Z,95444.94
2022-11-24T16:28:21.872Z,95442.09
2022-11-24T16:30:49.884Z,95442.59
2022-11-24T16:33:16.848Z,95438.78
2022-11-24T16:35:46.334Z,95452.41
2022-11-24T16:38:17.275Z,95441.50
2022-11-24T16:40:44.009Z,95445.63
2022-11-24T16:43:10.596Z,95451.19
2022-11-24T16:45:39.682Z,95441.81
2022-11-24T16:48:10.369Z,95437.06
2022-11-24T16:50:37.720Z,95434.56
2022-11-24T16:53:04.284Z,95435.25
2022-11-24T16:55:30.802Z,95444.03
2022-11-24T16:57:57.335Z,95433.16
2022-11-24T17:00:23.890Z,95442.94
2022-11-24T17:02:50.602Z,95446.66
2022-11-24T17:05:17.331Z,95439.31
2022-11-24T17:07:43.956Z,95439.09
2022-11-24T17:10:10.658Z,95440.59
2022-11-24T17:12:37.678Z,95452.69
2022-11-24T17:15:39.171Z,95444.41
2022-11-24T17:18:22.394Z,95440.97
2022-11-24T17:20:38.844Z,95443.56
2022-11-24T17:23:05.493Z,95448.09
2022-11-24T17:25:33.012Z,95433.84
2022-11-24T17:27:59.533Z,95432.63
2022-11-24T17:30:26.069Z,95431.59
2022-11-24T17:32:56.734Z,95432.41
2022-11-24T17:35:23.730Z,95431.09
2022-11-24T17:37:50.483Z,95419.72
2022-11-24T17:40:34.536Z,95427.28
2022-11-24T17:43:01.602Z,95419.13
2022-11-24T17:45:29.582Z,95418.59
2022-11-24T17:47:58.479Z,95426.47
2022-11-24T17:50:26.308Z,95418.22
2022-11-24T17:52:54.247Z,95419.44
2022-11-24T17:55:21.199Z,95411.09
2022-11-24T17:57:47.773Z,95406.66
2022-11-24T18:00:14.847Z,95405.75
2022-11-24T18:02:41.426Z,95408.09
2022-11-24T18:05:08.417Z,95407.59
2022-11-24T18:07:37.809Z,95407.69
2022-11-24T18:10:04.882Z,95404.25
2022-11-24T18:12:32.975Z,95400.81
2022-11-24T18:15:00.004Z,95402.59
2022-11-24T18:17:26.670Z,95401.28
2022-11-24T18:19:53.338Z,95393.72
2022-11-24T18:22:36.734Z,95399.78
2022-11-24T18:25:07.108Z,95405.00
2022-11-24T18:27:33.655Z,95406.41
2022-11-24T18:30:00.245Z,95411.94
2022-11-24T18:32:26.996Z,95420.69
2022-11-24T18:34:54.131Z,95402.47
2022-11-24T18:37:20.732Z,95403.56
2022-11-24T18:39:47.315Z,95415.97
2022-11-24T18:42:14.001Z,95414.88
2022-11-24T18:44:42.472Z,95407.50
2022-11-24T18:47:09.046Z,95411.53
2022-11-24T18:49:35.583Z,95406.91
2022-11-24T18:52:02.234Z,95403.91
2022-11-24T18:54:28.893Z,95415.59
2022-11-24T18:57:00.198Z,95410.44
2022-11-24T18:59:29.683Z,95408.81
2022-11-24T19:01:58.008Z,95418.91
2022-11-24T19:04:26.207Z,95422.50
2022-11-24T19:06:52.923Z,95420.91
2022-11-24T19:09:22.506Z,95428.56
2022-11-24T19:11:49.250Z,95419.88
2022-11-24T19:14:17.877Z,95428.63
2022-11-24T19:16:46.314Z,95427.81
2022-11-24T19:19:13.024Z,95430.84
2022-11-24T19:21:40.835Z,95435.44
2022-11-24T19:24:11.966Z,95434.13
2022-11-24T19:26:39.678Z,95436.84
2022-11-24T19:29:07.490Z,95439.00
2022-11-24T19:31:35.351Z,95439.81
2022-11-24T19:34:03.397Z,95440.03
2022-11-24T19:36:30.272Z,95441.44
2022-11-24T19:38:58.448Z,95444.44
2022-11-24T19:41:30.102Z,95440.97
2022-11-24T19:43:58.532Z,95438.75
2022-11-24T19:46:27.777Z,95434.22
2022-11-24T19:48:59.255Z,95432.50
2022-11-24T19:51:30.780Z,95446.06
2022-11-24T19:53:57.433Z,95435.59
2022-11-24T19:56:27.424Z,95437.22
2022-11-24T19:58:55.391Z,95433.91
2022-11-24T20:01:28.100Z,95433.41
2022-11-24T20:03:59.322Z,95432.59
2022-11-24T20:06:31.469Z,95436.13
2022-11-24T20:09:00.514Z,95441.47
2022-11-24T20:11:28.248Z,95431.59
2022-11-24T20:13:55.164Z,95424.38
2022-11-24T20:16:26.664Z,95432.16
2022-11-24T20:18:55.241Z,95425.31
2022-11-24T20:21:24.933Z,95425.50
2022-11-24T20:23:57.214Z,95429.03
2022-11-24T20:26:26.553Z,95431.25
2022-11-24T20:28:54.616Z,95429.63
2022-11-24T20:31:31.119Z,95438.31
2022-11-24T20:33:59.411Z,95423.59
2022-11-24T20:36:27.794Z,95417.56
2022-11-24T20:38:54.908Z,95424.00
2022-11-24T20:41:27.125Z,95425.53
2022-11-24T20:43:55.414Z,95430.69
2022-11-24T20:46:27.362Z,95429.25
2022-11-24T20:48:55.385Z,95429.56
2022-11-24T20:51:24.681Z,95424.31
2022-11-24T20:53:53.904Z,95424.84
2022-11-24T20:56:22.949Z,95430.28
2022-11-24T20:58:50.455Z,95432.69
2022-11-24T21:01:19.926Z,95421.59
2022-11-24T21:03:48.128Z,95422.72
2022-11-24T21:06:14.912Z,95416.16
2022-11-24T21:08:42.561Z,95414.53
2022-11-24T21:11:11.825Z,95411.53
2022-11-24T21:13:40.190Z,95418.88
2022-11-24T21:16:23.404Z,95415.56
2022-11-24T21:18:52.419Z,95411.22
2022-11-24T21:21:23.641Z,95401.44
2022-11-24T21:23:50.891Z,95395.50
2022-11-24T21:26:19.084Z,95404.25
2022-11-24T21:28:47.393Z,95409.69
2022-11-24T21:31:20.394Z,95408.09
2022-11-24T21:33:54.719Z,95402.03
2022-11-24T21:36:26.476Z,95406.38
2022-11-24T21:38:56.331Z,95410.41
2022-11-24T21:41:24.771Z,95406.28
2022-11-24T21:43:52.851Z,95404.97
2022-11-24T21:46:19.498Z,95405.28
2022-11-24T21:48:46.100Z,95409.91
2022-11-24T21:51:15.530Z,95409.41
2022-11-24T21:53:43.401Z,95405.06
2022-11-24T21:56:15.655Z,95409.09
2022-11-24T21:58:47.391Z,95405.97
2022-11-24T22:01:15.010Z,95401.25
2022-11-24T22:03:41.613Z,95399.56
2022-11-24T22:06:08.648Z,95398.44
2022-11-24T22:08:35.213Z,95390.78
2022-11-24T22:11:06.451Z,95383.22
2022-11-24T22:13:33.907Z,95390.06
2022-11-24T22:16:05.618Z,95389.34
2022-11-24T22:18:34.324Z,95381.19
2022-11-24T22:21:05.084Z,95385.50
2022-11-24T22:23:33.159Z,95387.13
2022-11-24T22:26:17.948Z,95391.97
2022-11-24T22:28:45.417Z,95386.31
2022-11-24T22:31:16.654Z,95376.03
2022-11-24T22:33:46.631Z,95380.38
2022-11-24T22:36:14.384Z,95375.22
2022-11-24T22:38:41.582Z,95380.66
2022-11-24T22:41:10.869Z,95371.41
2022-11-24T22:43:38.775Z,95370.19
2022-11-24T22:46:30.383Z,95376.06
2022-11-24T22:48:59.703Z,95370.50
2022-11-24T22:51:38.151Z,95373.13
2022-11-24T22:54:05.645Z,95383.91
2022-11-24T22:56:33.553Z,95379.97
2022-11-24T22:59:01.477Z,95373.63
2022-11-24T23:01:29.674Z,95372.50
2022-11-24T23:03:56.360Z,95378.25
2022-11-24T23:06:28.481Z,95386.44
2022-11-24T23:08:56.581Z,95385.31
2022-11-24T23:11:32.590Z,95382.69
2022-11-24T23:14:02.035Z,95397.53
2022-11-24T23:16:29.373Z,95377.34
2022-11-24T23:18:56.119Z,95374.34
2022-11-24T23:21:26.210Z,95371.31
2022-11-24T23:23:53.345Z,95367.28
2022-11-24T23:26:28.384Z,95368.78
2022-11-24T23:28:55.415Z,95359.72
2022-11-24T23:31:27.446Z,95371.00
2022-11-24T23:33:55.194Z,95367.56
2022-11-24T23:36:22.621Z,95362.22
2022-11-24T23:38:49.629Z,95364.84
2022-11-24T23:41:19.497Z,95363.72
2022-11-24T23:43:47.360Z,95359.09
2022-11-24T23:46:20.556Z,95363.72
2022-11-24T23:48:48.176Z,95362.00
2022-11-24T23:51:22.132Z,95367.19
2022-11-24T23:53:49.112Z,95359.53
2022-11-24T23:56:18.533Z,95363.34
2022-11-24T23:58:45.820Z,95362.91
